DAL3121 KATL-KBNA
Flight info
| Callsign | DAL3121 |
|---|---|
| Flight time | 0h 41m |
| Altitude | 22000 |
| Route | PENCL2 PENCL JAGIR SWFFT3 |
| Aircraft | B739/M-SDE2E3FGHIRWXY/LB1 |
Departure
| Time | 2026-05-06 01:32 |
|---|---|
| Airport | Hartsfield Jackson Atlanta International Airport (KATL) |
Arrival
| Time | 2026-05-06 02:13 |
|---|---|
| Airport | Nashville International Airport (KBNA) |
| Time | Latitude | Longitude | Altitude | Speed | Heading |
|---|---|---|---|---|---|
| 2026-05-06 00:50 | 33.64367 | -84.43976 | 1034 ft | 0 kts | 90° |
| 2026-05-06 01:12 | 33.64367 | -84.43977 | 1034 ft | 2 kts | 90° |
| 2026-05-06 01:12 | 33.64368 | -84.44006 | 1034 ft | 4 kts | 83° |
| 2026-05-06 01:12 | 33.64363 | -84.44031 | 1034 ft | 4 kts | 56° |
| 2026-05-06 01:13 | 33.64345 | -84.44050 | 1034 ft | 4 kts | 9° |
| 2026-05-06 01:13 | 33.64337 | -84.44051 | 1034 ft | 1 kts | 360° |
| 2026-05-06 01:20 | 33.64387 | -84.44050 | 1034 ft | 14 kts | 1° |
| 2026-05-06 01:20 | 33.64492 | -84.44021 | 1034 ft | 16 kts | 52° |
| 2026-05-06 01:20 | 33.64516 | -84.43893 | 1034 ft | 16 kts | 82° |
| 2026-05-06 01:20 | 33.64532 | -84.43766 | 1034 ft | 16 kts | 81° |
| 2026-05-06 01:21 | 33.64542 | -84.43588 | 1035 ft | 26 kts | 90° |
| 2026-05-06 01:21 | 33.64542 | -84.43378 | 1035 ft | 24 kts | 90° |
| 2026-05-06 01:21 | 33.64541 | -84.43182 | 1035 ft | 23 kts | 90° |
| 2026-05-06 01:21 | 33.64541 | -84.42993 | 1035 ft | 22 kts | 90° |
| 2026-05-06 01:22 | 33.64541 | -84.42818 | 1034 ft | 21 kts | 90° |
| 2026-05-06 01:22 | 33.64541 | -84.42647 | 1034 ft | 20 kts | 90° |
| 2026-05-06 01:22 | 33.64541 | -84.42492 | 1034 ft | 18 kts | 90° |
| 2026-05-06 01:22 | 33.64542 | -84.42337 | 1034 ft | 19 kts | 90° |
| 2026-05-06 01:23 | 33.64542 | -84.42177 | 1034 ft | 20 kts | 90° |
| 2026-05-06 01:23 | 33.64541 | -84.41984 | 1034 ft | 23 kts | 90° |
| 2026-05-06 01:23 | 33.64540 | -84.41792 | 1035 ft | 23 kts | 90° |
| 2026-05-06 01:23 | 33.64540 | -84.41607 | 1035 ft | 21 kts | 90° |
| 2026-05-06 01:24 | 33.64542 | -84.41430 | 1035 ft | 22 kts | 89° |
| 2026-05-06 01:24 | 33.64543 | -84.41241 | 1035 ft | 23 kts | 90° |
| 2026-05-06 01:24 | 33.64543 | -84.41043 | 1035 ft | 25 kts | 90° |
| 2026-05-06 01:24 | 33.64541 | -84.40859 | 1034 ft | 15 kts | 95° |
| 2026-05-06 01:25 | 33.64529 | -84.40794 | 1034 ft | 9 kts | 106° |
| 2026-05-06 01:25 | 33.64510 | -84.40676 | 1034 ft | 15 kts | 90° |
| 2026-05-06 01:25 | 33.64520 | -84.40593 | 1034 ft | 5 kts | 58° |
| 2026-05-06 01:25 | 33.64526 | -84.40586 | 1034 ft | 0 kts | 45° |
| 2026-05-06 01:26 | 33.64529 | -84.40584 | 1034 ft | 2 kts | 33° |
| 2026-05-06 01:26 | 33.64533 | -84.40582 | 1034 ft | 1 kts | 25° |
| 2026-05-06 01:26 | 33.64572 | -84.40574 | 1033 ft | 12 kts | 2° |
| 2026-05-06 01:26 | 33.64582 | -84.40573 | 1033 ft | 0 kts | 1° |
| 2026-05-06 01:28 | 33.64592 | -84.40573 | 1033 ft | 6 kts | 1° |
| 2026-05-06 01:28 | 33.64640 | -84.40573 | 1032 ft | 6 kts | 355° |
| 2026-05-06 01:28 | 33.64671 | -84.40593 | 1032 ft | 3 kts | 311° |
| 2026-05-06 01:28 | 33.64678 | -84.40624 | 1032 ft | 6 kts | 278° |
| 2026-05-06 01:29 | 33.64678 | -84.40633 | 1032 ft | 0 kts | 269° |
| 2026-05-06 01:31 | 33.64678 | -84.40640 | 1032 ft | 6 kts | 270° |
| 2026-05-06 01:31 | 33.64681 | -84.40858 | 1034 ft | 56 kts | 269° |
| 2026-05-06 01:31 | 33.64680 | -84.41602 | 1036 ft | 120 kts | 270° |
| 2026-05-06 01:31 | 33.64667 | -84.42822 | 1058 ft | 167 kts | 268° |
| 2026-05-06 01:32 | 33.64669 | -84.44241 | 1576 ft | 175 kts | 268° |
| 2026-05-06 01:32 | 33.64667 | -84.45721 | 2222 ft | 174 kts | 259° |
| 2026-05-06 01:32 | 33.64772 | -84.47185 | 2791 ft | 188 kts | 288° |
| 2026-05-06 01:32 | 33.65474 | -84.48635 | 3023 ft | 218 kts | 297° |
| 2026-05-06 01:33 | 33.66245 | -84.50302 | 3252 ft | 237 kts | 291° |
| 2026-05-06 01:33 | 33.66966 | -84.52117 | 3755 ft | 245 kts | 290° |
| 2026-05-06 01:33 | 33.67680 | -84.53963 | 4438 ft | 247 kts | 290° |
| 2026-05-06 01:33 | 33.68437 | -84.55876 | 4927 ft | 265 kts | 297° |
| 2026-05-06 01:34 | 33.69763 | -84.57462 | 5666 ft | 279 kts | 326° |
| 2026-05-06 01:34 | 33.71617 | -84.58182 | 6575 ft | 286 kts | 347° |
| 2026-05-06 01:34 | 33.73626 | -84.58285 | 7390 ft | 290 kts | 356° |
| 2026-05-06 01:34 | 33.75661 | -84.58217 | 8160 ft | 293 kts | 356° |
| 2026-05-06 01:35 | 33.77699 | -84.58147 | 8969 ft | 294 kts | 356° |
| 2026-05-06 01:35 | 33.79729 | -84.58101 | 9689 ft | 296 kts | 355° |
| 2026-05-06 01:35 | 33.81783 | -84.58072 | 10033 ft | 296 kts | 354° |
| 2026-05-06 01:35 | 33.83857 | -84.58084 | 10111 ft | 300 kts | 353° |
| 2026-05-06 01:36 | 33.85879 | -84.58328 | 10098 ft | 291 kts | 342° |
| 2026-05-06 01:36 | 33.87860 | -84.58928 | 10115 ft | 291 kts | 338° |
| 2026-05-06 01:36 | 33.89860 | -84.59625 | 10240 ft | 309 kts | 338° |
| 2026-05-06 01:36 | 33.92002 | -84.60381 | 10418 ft | 332 kts | 339° |
| 2026-05-06 01:37 | 33.94289 | -84.61168 | 10607 ft | 353 kts | 340° |
| 2026-05-06 01:37 | 33.96687 | -84.61971 | 10860 ft | 367 kts | 340° |
| 2026-05-06 01:37 | 33.99200 | -84.62798 | 11394 ft | 372 kts | 340° |
| 2026-05-06 01:37 | 34.01662 | -84.63596 | 12094 ft | 371 kts | 340° |
| 2026-05-06 01:38 | 34.04160 | -84.64402 | 12760 ft | 372 kts | 341° |
| 2026-05-06 01:38 | 34.06675 | -84.65214 | 13374 ft | 375 kts | 341° |
| 2026-05-06 01:38 | 34.09201 | -84.66031 | 13975 ft | 377 kts | 341° |
| 2026-05-06 01:38 | 34.11743 | -84.66853 | 14505 ft | 379 kts | 340° |
| 2026-05-06 01:39 | 34.14310 | -84.67689 | 14954 ft | 384 kts | 340° |
| 2026-05-06 01:39 | 34.16901 | -84.68528 | 15486 ft | 386 kts | 340° |
| 2026-05-06 01:39 | 34.19496 | -84.69369 | 16044 ft | 387 kts | 340° |
| 2026-05-06 01:39 | 34.22112 | -84.70217 | 16507 ft | 391 kts | 340° |
| 2026-05-06 01:40 | 34.24745 | -84.71079 | 16950 ft | 393 kts | 338° |
| 2026-05-06 01:40 | 34.27210 | -84.72417 | 17412 ft | 386 kts | 323° |
| 2026-05-06 01:40 | 34.29462 | -84.74181 | 17922 ft | 387 kts | 322° |
| 2026-05-06 01:40 | 34.31740 | -84.75942 | 18362 ft | 390 kts | 323° |
| 2026-05-06 01:41 | 34.34042 | -84.77701 | 18739 ft | 392 kts | 323° |
| 2026-05-06 01:41 | 34.36360 | -84.79461 | 19152 ft | 394 kts | 323° |
| 2026-05-06 01:41 | 34.38689 | -84.81221 | 19530 ft | 396 kts | 323° |
| 2026-05-06 01:41 | 34.41011 | -84.82968 | 19875 ft | 399 kts | 323° |
| 2026-05-06 01:42 | 34.43379 | -84.84738 | 20257 ft | 400 kts | 323° |
| 2026-05-06 01:42 | 34.45753 | -84.86522 | 20647 ft | 402 kts | 323° |
| 2026-05-06 01:42 | 34.48132 | -84.88319 | 21014 ft | 404 kts | 323° |
| 2026-05-06 01:42 | 34.50523 | -84.90128 | 21379 ft | 406 kts | 323° |
| 2026-05-06 01:43 | 34.52919 | -84.91943 | 21721 ft | 407 kts | 323° |
| 2026-05-06 01:43 | 34.55327 | -84.93768 | 22056 ft | 409 kts | 323° |
| 2026-05-06 01:43 | 34.57746 | -84.95607 | 22397 ft | 411 kts | 323° |
| 2026-05-06 01:43 | 34.60173 | -84.97453 | 22737 ft | 412 kts | 323° |
| 2026-05-06 01:44 | 34.62616 | -84.99308 | 23023 ft | 415 kts | 323° |
| 2026-05-06 01:44 | 34.65086 | -85.01186 | 23127 ft | 422 kts | 323° |
| 2026-05-06 01:44 | 34.67576 | -85.03095 | 23325 ft | 425 kts | 323° |
| 2026-05-06 01:44 | 34.70084 | -85.05028 | 23616 ft | 426 kts | 323° |
| 2026-05-06 01:45 | 34.72571 | -85.06949 | 23921 ft | 422 kts | 323° |
| 2026-05-06 01:45 | 34.75035 | -85.08856 | 23948 ft | 419 kts | 322° |
| 2026-05-06 01:45 | 34.77504 | -85.10771 | 23968 ft | 421 kts | 323° |
| 2026-05-06 01:45 | 34.79947 | -85.12673 | 23989 ft | 422 kts | 322° |
| 2026-05-06 01:46 | 34.82422 | -85.14593 | 23955 ft | 422 kts | 322° |
| 2026-05-06 01:46 | 34.84905 | -85.16516 | 23944 ft | 422 kts | 322° |
| 2026-05-06 01:46 | 34.87389 | -85.18440 | 23950 ft | 422 kts | 322° |
| 2026-05-06 01:46 | 34.89867 | -85.20362 | 23964 ft | 422 kts | 322° |
| 2026-05-06 01:47 | 34.92343 | -85.22285 | 23958 ft | 422 kts | 322° |
| 2026-05-06 01:47 | 34.94821 | -85.24213 | 23946 ft | 422 kts | 322° |
| 2026-05-06 01:47 | 34.97304 | -85.26145 | 23945 ft | 422 kts | 322° |
| 2026-05-06 01:47 | 34.99785 | -85.28078 | 23945 ft | 422 kts | 322° |
| 2026-05-06 01:48 | 35.02262 | -85.30009 | 23946 ft | 422 kts | 322° |
| 2026-05-06 01:48 | 35.04710 | -85.31918 | 23948 ft | 422 kts | 322° |
| 2026-05-06 01:48 | 35.07218 | -85.33789 | 23945 ft | 423 kts | 323° |
| 2026-05-06 01:48 | 35.09691 | -85.35733 | 23941 ft | 422 kts | 321° |
| 2026-05-06 01:49 | 35.12130 | -85.37706 | 23954 ft | 421 kts | 321° |
| 2026-05-06 01:49 | 35.14596 | -85.39642 | 23945 ft | 421 kts | 323° |
| 2026-05-06 01:49 | 35.16975 | -85.41713 | 23951 ft | 417 kts | 315° |
| 2026-05-06 01:49 | 35.19200 | -85.43992 | 23846 ft | 419 kts | 311° |
| 2026-05-06 01:50 | 35.21064 | -85.46687 | 23881 ft | 417 kts | 304° |
| 2026-05-06 01:50 | 35.22850 | -85.49477 | 23938 ft | 417 kts | 306° |
| 2026-05-06 01:50 | 35.24768 | -85.52142 | 23934 ft | 419 kts | 309° |
| 2026-05-06 01:50 | 35.26783 | -85.54724 | 23945 ft | 420 kts | 310° |
| 2026-05-06 01:51 | 35.28301 | -85.56621 | 23945 ft | 420 kts | 310° |
| 2026-05-06 01:51 | 35.30352 | -85.59174 | 23940 ft | 421 kts | 310° |
| 2026-05-06 01:51 | 35.32399 | -85.61739 | 23931 ft | 420 kts | 310° |
| 2026-05-06 01:51 | 35.34415 | -85.64283 | 23910 ft | 409 kts | 310° |
| 2026-05-06 01:52 | 35.36326 | -85.66703 | 23808 ft | 394 kts | 310° |
| 2026-05-06 01:52 | 35.38220 | -85.69121 | 23382 ft | 387 kts | 309° |
| 2026-05-06 01:52 | 35.40053 | -85.71476 | 22809 ft | 382 kts | 309° |
| 2026-05-06 01:52 | 35.41873 | -85.73815 | 22244 ft | 377 kts | 309° |
| 2026-05-06 01:53 | 35.43671 | -85.76128 | 21714 ft | 373 kts | 309° |
| 2026-05-06 01:53 | 35.45453 | -85.78424 | 21168 ft | 369 kts | 309° |
| 2026-05-06 01:53 | 35.47220 | -85.80693 | 20636 ft | 365 kts | 309° |
| 2026-05-06 01:53 | 35.48968 | -85.82938 | 20105 ft | 363 kts | 309° |
| 2026-05-06 01:54 | 35.50702 | -85.85170 | 19585 ft | 360 kts | 309° |
| 2026-05-06 01:54 | 35.52423 | -85.87387 | 19236 ft | 353 kts | 309° |
| 2026-05-06 01:54 | 35.54091 | -85.89533 | 19017 ft | 343 kts | 308° |
| 2026-05-06 01:54 | 35.55703 | -85.91617 | 18829 ft | 332 kts | 308° |
| 2026-05-06 01:55 | 35.57263 | -85.93690 | 18530 ft | 328 kts | 307° |
| 2026-05-06 01:55 | 35.58806 | -85.95764 | 18245 ft | 331 kts | 307° |
| 2026-05-06 01:55 | 35.60371 | -85.97874 | 17887 ft | 336 kts | 307° |
| 2026-05-06 01:55 | 35.61950 | -85.99997 | 17563 ft | 337 kts | 307° |
| 2026-05-06 01:56 | 35.63532 | -86.02116 | 17271 ft | 334 kts | 308° |
| 2026-05-06 01:56 | 35.64781 | -86.03786 | 17083 ft | 331 kts | 307° |
| 2026-05-06 01:56 | 35.66328 | -86.05866 | 16780 ft | 329 kts | 307° |
| 2026-05-06 01:56 | 35.67874 | -86.07938 | 16485 ft | 328 kts | 307° |
| 2026-05-06 01:57 | 35.69418 | -86.10007 | 16209 ft | 328 kts | 307° |
| 2026-05-06 01:57 | 35.70953 | -86.12077 | 15903 ft | 327 kts | 306° |
| 2026-05-06 01:57 | 35.72380 | -86.14250 | 15595 ft | 325 kts | 302° |
| 2026-05-06 01:57 | 35.73722 | -86.16490 | 15295 ft | 325 kts | 301° |
| 2026-05-06 01:58 | 35.75049 | -86.18745 | 14981 ft | 326 kts | 301° |
| 2026-05-06 01:58 | 35.76379 | -86.21001 | 14697 ft | 323 kts | 301° |
| 2026-05-06 01:58 | 35.77700 | -86.23230 | 14365 ft | 320 kts | 301° |
| 2026-05-06 01:58 | 35.79017 | -86.25431 | 14093 ft | 317 kts | 301° |
| 2026-05-06 01:59 | 35.80321 | -86.27607 | 13801 ft | 315 kts | 301° |
| 2026-05-06 01:59 | 35.81621 | -86.29781 | 13484 ft | 316 kts | 301° |
| 2026-05-06 01:59 | 35.82906 | -86.31938 | 13173 ft | 316 kts | 301° |
| 2026-05-06 01:59 | 35.84202 | -86.34117 | 12864 ft | 316 kts | 301° |
| 2026-05-06 02:00 | 35.85502 | -86.36297 | 12565 ft | 315 kts | 301° |
| 2026-05-06 02:00 | 35.86800 | -86.38472 | 12275 ft | 314 kts | 301° |
| 2026-05-06 02:00 | 35.88090 | -86.40631 | 11986 ft | 311 kts | 301° |
| 2026-05-06 02:00 | 35.89369 | -86.42775 | 11703 ft | 309 kts | 301° |
| 2026-05-06 02:01 | 35.90637 | -86.44900 | 11428 ft | 306 kts | 301° |
| 2026-05-06 02:01 | 35.91885 | -86.46994 | 11133 ft | 300 kts | 300° |
| 2026-05-06 02:01 | 35.93107 | -86.49042 | 10888 ft | 294 kts | 300° |
| 2026-05-06 02:01 | 35.94306 | -86.51055 | 10619 ft | 289 kts | 300° |
| 2026-05-06 02:02 | 35.95485 | -86.53038 | 10340 ft | 284 kts | 300° |
| 2026-05-06 02:02 | 35.96643 | -86.54986 | 10077 ft | 279 kts | 300° |
| 2026-05-06 02:02 | 35.97784 | -86.56905 | 9826 ft | 275 kts | 300° |
| 2026-05-06 02:02 | 35.99151 | -86.58543 | 9528 ft | 284 kts | 322° |
| 2026-05-06 02:03 | 36.01025 | -86.59370 | 9277 ft | 294 kts | 344° |
| 2026-05-06 02:03 | 36.03081 | -86.59285 | 8979 ft | 306 kts | 7° |
| 2026-05-06 02:03 | 36.05106 | -86.58495 | 8707 ft | 305 kts | 12° |
| 2026-05-06 02:03 | 36.07110 | -86.57666 | 8419 ft | 302 kts | 12° |
| 2026-05-06 02:04 | 36.09090 | -86.56787 | 8137 ft | 302 kts | 17° |
| 2026-05-06 02:04 | 36.11015 | -86.55749 | 7811 ft | 301 kts | 17° |
| 2026-05-06 02:04 | 36.12939 | -86.54771 | 7513 ft | 300 kts | 20° |
| 2026-05-06 02:04 | 36.14803 | -86.53699 | 7220 ft | 297 kts | 17° |
| 2026-05-06 02:05 | 36.16730 | -86.52836 | 6925 ft | 291 kts | 8° |
| 2026-05-06 02:05 | 36.18685 | -86.52184 | 6640 ft | 288 kts | 15° |
| 2026-05-06 02:05 | 36.20479 | -86.51249 | 6356 ft | 283 kts | 18° |
| 2026-05-06 02:05 | 36.22282 | -86.50331 | 6038 ft | 277 kts | 17° |
| 2026-05-06 02:06 | 36.24048 | -86.49438 | 5785 ft | 271 kts | 17° |
| 2026-05-06 02:06 | 36.25790 | -86.48551 | 5442 ft | 268 kts | 17° |
| 2026-05-06 02:06 | 36.27507 | -86.47774 | 5458 ft | 260 kts | 5° |
| 2026-05-06 02:06 | 36.29228 | -86.47846 | 5437 ft | 239 kts | 331° |
| 2026-05-06 02:07 | 36.30541 | -86.48908 | 5430 ft | 217 kts | 298° |
| 2026-05-06 02:07 | 36.31084 | -86.50529 | 5398 ft | 201 kts | 269° |
| 2026-05-06 02:07 | 36.30797 | -86.52240 | 4897 ft | 205 kts | 240° |
| 2026-05-06 02:07 | 36.30079 | -86.53750 | 4387 ft | 202 kts | 236° |
| 2026-05-06 02:08 | 36.29343 | -86.55225 | 3889 ft | 200 kts | 235° |
| 2026-05-06 02:08 | 36.28638 | -86.56707 | 3409 ft | 199 kts | 235° |
| 2026-05-06 02:08 | 36.27964 | -86.58189 | 3095 ft | 190 kts | 235° |
| 2026-05-06 02:08 | 36.27321 | -86.59628 | 3036 ft | 190 kts | 235° |
| 2026-05-06 02:09 | 36.26699 | -86.61006 | 2990 ft | 175 kts | 234° |
| 2026-05-06 02:09 | 36.26136 | -86.62256 | 2984 ft | 161 kts | 233° |
| 2026-05-06 02:09 | 36.25568 | -86.63434 | 2987 ft | 156 kts | 223° |
| 2026-05-06 02:09 | 36.24649 | -86.63992 | 2829 ft | 153 kts | 186° |
| 2026-05-06 02:10 | 36.23581 | -86.64077 | 2584 ft | 150 kts | 196° |
| 2026-05-06 02:10 | 36.22811 | -86.64358 | 2447 ft | 140 kts | 198° |
| 2026-05-06 02:10 | 36.21882 | -86.64692 | 2270 ft | 140 kts | 196° |
| 2026-05-06 02:10 | 36.20977 | -86.65036 | 2075 ft | 131 kts | 197° |
| 2026-05-06 02:11 | 36.20123 | -86.65373 | 1918 ft | 130 kts | 197° |
| 2026-05-06 02:11 | 36.19290 | -86.65693 | 1741 ft | 121 kts | 194° |
| 2026-05-06 02:11 | 36.18431 | -86.65988 | 1584 ft | 132 kts | 197° |
| 2026-05-06 02:11 | 36.17549 | -86.66393 | 1418 ft | 132 kts | 196° |
| 2026-05-06 02:12 | 36.16682 | -86.66737 | 1277 ft | 134 kts | 197° |
| 2026-05-06 02:12 | 36.15788 | -86.67091 | 1028 ft | 138 kts | 196° |
| 2026-05-06 02:12 | 36.14888 | -86.67425 | 811 ft | 136 kts | 203° |
| 2026-05-06 02:12 | 36.13991 | -86.67796 | 646 ft | 133 kts | 197° |
| 2026-05-06 02:13 | 36.13094 | -86.68133 | 579 ft | 132 kts | 197° |
| 2026-05-06 02:13 | 36.12278 | -86.68452 | 572 ft | 104 kts | 196° |
| 2026-05-06 02:13 | 36.11925 | -86.68586 | 575 ft | 36 kts | 198° |
| 2026-05-06 02:13 | 36.11779 | -86.68608 | 578 ft | 10 kts | 131° |
| 2026-05-06 02:14 | 36.11751 | -86.68542 | 578 ft | 8 kts | 111° |
| 2026-05-06 02:14 | 36.11736 | -86.68483 | 580 ft | 7 kts | 102° |
| 2026-05-06 02:14 | 36.11761 | -86.68430 | 581 ft | 9 kts | 28° |
| 2026-05-06 02:14 | 36.11840 | -86.68399 | 581 ft | 15 kts | 15° |
| 2026-05-06 02:15 | 36.11980 | -86.68350 | 576 ft | 26 kts | 15° |
| 2026-05-06 02:15 | 36.12173 | -86.68281 | 577 ft | 29 kts | 16° |
| 2026-05-06 02:15 | 36.12353 | -86.68216 | 572 ft | 26 kts | 17° |
| 2026-05-06 02:15 | 36.12516 | -86.68156 | 573 ft | 23 kts | 17° |
| 2026-05-06 02:16 | 36.12668 | -86.68106 | 573 ft | 22 kts | 15° |
| 2026-05-06 02:16 | 36.12810 | -86.68050 | 581 ft | 21 kts | 18° |
| 2026-05-06 02:16 | 36.12966 | -86.67990 | 578 ft | 26 kts | 14° |
| 2026-05-06 02:16 | 36.13155 | -86.67921 | 572 ft | 30 kts | 19° |
| 2026-05-06 02:17 | 36.13340 | -86.67844 | 573 ft | 24 kts | 17° |
| 2026-05-06 02:17 | 36.13474 | -86.67793 | 574 ft | 13 kts | 18° |
| 2026-05-06 02:17 | 36.13520 | -86.67722 | 573 ft | 11 kts | 93° |
| 2026-05-06 02:17 | 36.13499 | -86.67626 | 575 ft | 13 kts | 108° |
| 2026-05-06 02:18 | 36.13465 | -86.67498 | 566 ft | 18 kts | 108° |
| 2026-05-06 02:18 | 36.13430 | -86.67370 | 572 ft | 12 kts | 115° |
| 2026-05-06 02:18 | 36.13370 | -86.67328 | 568 ft | 6 kts | 182° |
| 2026-05-06 02:18 | 36.13340 | -86.67316 | 570 ft | 3 kts | 143° |
| 2026-05-06 02:19 | 36.13327 | -86.67300 | 570 ft | 3 kts | 134° |
| 2026-05-06 02:19 | 36.13316 | -86.67286 | 569 ft | 1 kts | 134° |
| 2026-05-06 02:19 | 36.13311 | -86.67279 | 568 ft | 1 kts | 133° |
| 2026-05-06 02:19 | 36.13307 | -86.67273 | 568 ft | 0 kts | 133° |